createdAt,value
2023-05-08T00:01:37.130Z,42.40
2023-05-08T00:04:08.240Z,42.00
2023-05-08T00:06:38.420Z,42.17
2023-05-08T00:09:08.522Z,42.25
2023-05-08T00:11:50.335Z,42.15
2023-05-08T00:14:20.899Z,42.05
2023-05-08T00:16:51.491Z,42.19
2023-05-08T00:19:21.640Z,42.16
2023-05-08T00:21:52.892Z,42.39
2023-05-08T00:24:22.783Z,42.29
2023-05-08T00:26:55.078Z,42.31
2023-05-08T00:29:25.072Z,42.23
2023-05-08T00:31:55.393Z,42.28
2023-05-08T00:34:26.100Z,42.16
2023-05-08T00:36:58.738Z,42.13
2023-05-08T00:39:29.166Z,42.28
2023-05-08T00:42:01.410Z,42.20
2023-05-08T00:44:31.752Z,41.97
2023-05-08T00:47:02.072Z,42.36
2023-05-08T00:49:32.571Z,42.44
2023-05-08T00:52:03.120Z,42.36
2023-05-08T00:54:33.641Z,42.46
2023-05-08T00:57:09.244Z,42.25
2023-05-08T00:59:42.534Z,42.38
2023-05-08T01:02:13.427Z,42.50
2023-05-08T01:04:46.036Z,42.45
2023-05-08T01:07:16.491Z,42.44
2023-05-08T01:09:46.631Z,42.35
2023-05-08T01:12:29.631Z,42.37
2023-05-08T01:15:14.089Z,42.73
2023-05-08T01:18:03.116Z,42.21
2023-05-08T01:20:47.346Z,42.31
2023-05-08T01:24:17.287Z,42.42
2023-05-08T01:27:39.503Z,42.36
2023-05-08T01:30:44.555Z,42.43
2023-05-08T01:33:27.246Z,42.43
2023-05-08T01:36:14.368Z,42.35
2023-05-08T01:38:56.634Z,42.46
2023-05-08T01:41:30.898Z,42.43
2023-05-08T01:44:15.838Z,42.30
2023-05-08T01:46:51.637Z,42.29
2023-05-08T01:49:30.828Z,42.06
2023-05-08T01:52:09.418Z,42.28
2023-05-08T01:54:49.484Z,42.20
2023-05-08T01:57:22.299Z,41.88
2023-05-08T01:59:55.891Z,42.25
2023-05-08T02:02:26.657Z,42.41
2023-05-08T02:04:59.869Z,42.07
2023-05-08T02:07:31.042Z,42.00
2023-05-08T02:10:03.833Z,42.00
2023-05-08T02:12:37.121Z,42.08
2023-05-08T02:15:10.216Z,41.95
2023-05-08T02:17:43.861Z,41.97
2023-05-08T02:20:18.803Z,41.99
2023-05-08T02:22:54.188Z,41.68
2023-05-08T02:25:26.149Z,42.26
2023-05-08T02:27:59.007Z,42.08
2023-05-08T02:30:30.870Z,42.03
2023-05-08T02:33:04.816Z,42.10
2023-05-08T02:35:39.296Z,41.76
2023-05-08T02:38:12.953Z,42.32
2023-05-08T02:40:49.898Z,42.12
2023-05-08T02:43:20.335Z,42.12
2023-05-08T02:45:59.983Z,42.12
2023-05-08T02:48:40.178Z,42.23
2023-05-08T02:51:28.649Z,42.19
2023-05-08T02:54:10.658Z,41.94
2023-05-08T02:56:50.642Z,42.16
2023-05-08T02:59:24.318Z,41.86
2023-05-08T03:02:06.597Z,42.27
2023-05-08T03:04:44.167Z,42.35
2023-05-08T03:07:18.560Z,42.03
2023-05-08T03:09:57.850Z,42.25
2023-05-08T03:12:33.362Z,42.24
2023-05-08T03:15:10.210Z,42.13
2023-05-08T03:17:45.289Z,42.37
2023-05-08T03:20:22.108Z,42.24
2023-05-08T03:22:57.628Z,42.36
2023-05-08T03:25:29.824Z,42.68
2023-05-08T03:28:01.808Z,42.65
2023-05-08T03:30:33.349Z,42.46
2023-05-08T03:33:07.857Z,42.38
2023-05-08T03:35:39.323Z,42.19
2023-05-08T03:38:12.433Z,42.47
2023-05-08T03:40:42.955Z,42.51
2023-05-08T03:43:14.590Z,42.31
2023-05-08T03:45:44.529Z,42.53
2023-05-08T03:48:16.727Z,42.53
2023-05-08T03:50:47.855Z,42.54
2023-05-08T03:53:20.558Z,42.45
2023-05-08T03:55:51.441Z,42.63
2023-05-08T03:58:31.210Z,42.55
2023-05-08T04:01:11.342Z,42.53
2023-05-08T04:04:03.952Z,42.67
2023-05-08T04:06:50.197Z,42.59
2023-05-08T04:09:30.704Z,42.45
2023-05-08T04:12:10.590Z,42.67
2023-05-08T04:14:54.865Z,42.70
2023-05-08T04:17:38.734Z,42.75
2023-05-08T04:20:14.619Z,42.68
2023-05-08T04:22:48.874Z,42.92
2023-05-08T04:25:23.763Z,42.66
2023-05-08T04:27:56.635Z,42.63
2023-05-08T04:30:28.278Z,42.63
2023-05-08T04:33:00.365Z,43.06
2023-05-08T04:35:30.287Z,42.74
2023-05-08T04:38:05.938Z,42.89
2023-05-08T04:40:38.312Z,42.80
2023-05-08T04:43:08.689Z,42.70
2023-05-08T04:45:39.010Z,42.90
2023-05-08T04:48:09.708Z,42.95
2023-05-08T04:50:40.443Z,42.93
2023-05-08T04:53:10.881Z,43.01
2023-05-08T04:55:42.662Z,43.05
2023-05-08T04:58:13.649Z,43.04
2023-05-08T05:00:43.474Z,43.11
2023-05-08T05:03:13.656Z,43.17
2023-05-08T05:05:43.534Z,43.35
2023-05-08T05:08:13.563Z,43.29
2023-05-08T05:10:45.715Z,43.51
2023-05-08T05:13:15.846Z,43.45
2023-05-08T05:15:46.108Z,43.28
2023-05-08T05:18:16.461Z,43.45
2023-05-08T05:20:46.946Z,43.57
2023-05-08T05:23:16.693Z,43.56
2023-05-08T05:25:49.212Z,43.63
2023-05-08T05:28:19.355Z,43.76
2023-05-08T05:30:50.694Z,43.60
2023-05-08T05:33:21.000Z,43.67
2023-05-08T05:35:51.373Z,43.57
2023-05-08T05:38:21.753Z,43.89
2023-05-08T05:40:53.633Z,43.75
2023-05-08T05:43:23.451Z,43.78
2023-05-08T05:45:53.653Z,43.82
2023-05-08T05:48:23.344Z,43.86
2023-05-08T05:50:53.483Z,43.94
2023-05-08T05:53:23.553Z,43.95
2023-05-08T05:55:55.634Z,43.70
2023-05-08T05:58:25.602Z,43.70
2023-05-08T06:00:55.652Z,43.68
2023-05-08T06:03:25.770Z,43.53
2023-05-08T06:05:56.429Z,43.77
2023-05-08T06:08:26.672Z,43.71
2023-05-08T06:10:57.989Z,43.65
2023-05-08T06:13:28.343Z,43.78
2023-05-08T06:15:59.418Z,43.73
2023-05-08T06:18:29.684Z,43.59
2023-05-08T06:21:00.701Z,43.54
2023-05-08T06:23:31.412Z,43.75
2023-05-08T06:26:03.620Z,43.91
2023-05-08T06:28:33.402Z,43.67
2023-05-08T06:31:04.065Z,43.55
2023-05-08T06:33:34.413Z,43.45
2023-05-08T06:36:06.542Z,43.35
2023-05-08T06:38:36.851Z,43.26
2023-05-08T06:41:08.877Z,43.32
2023-05-08T06:43:38.568Z,43.38
2023-05-08T06:46:09.106Z,43.22
2023-05-08T06:48:39.240Z,43.33
2023-05-08T06:51:09.645Z,43.33
2023-05-08T06:53:39.843Z,43.09
2023-05-08T06:56:12.566Z,43.11
2023-05-08T06:58:42.721Z,43.08
2023-05-08T07:01:15.455Z,43.23
2023-05-08T07:03:45.489Z,43.35
2023-05-08T07:06:15.376Z,43.20
2023-05-08T07:08:45.932Z,43.37
2023-05-08T07:11:17.828Z,43.35
2023-05-08T07:13:48.659Z,43.30
2023-05-08T07:16:19.596Z,43.31
2023-05-08T07:18:50.061Z,43.33
2023-05-08T07:21:21.701Z,43.21
2023-05-08T07:23:54.350Z,43.05
2023-05-08T07:26:26.294Z,43.26
2023-05-08T07:28:56.349Z,43.37
2023-05-08T07:31:27.562Z,43.10
2023-05-08T07:33:57.071Z,42.97
2023-05-08T07:36:27.325Z,43.04
2023-05-08T07:38:57.472Z,42.78
2023-05-08T07:41:29.611Z,42.90
2023-05-08T07:44:00.374Z,42.78
2023-05-08T07:46:30.481Z,43.13
2023-05-08T07:49:01.173Z,43.05
2023-05-08T07:51:32.137Z,43.12
2023-05-08T07:54:02.559Z,42.84
2023-05-08T07:56:34.449Z,43.05
2023-05-08T07:59:04.994Z,42.86
2023-05-08T08:01:35.010Z,42.77
2023-05-08T08:04:04.909Z,42.78
2023-05-08T08:06:35.559Z,42.59
2023-05-08T08:09:05.945Z,42.82
2023-05-08T08:11:37.568Z,43.03
2023-05-08T08:14:08.801Z,42.84
2023-05-08T08:16:39.276Z,42.72
2023-05-08T08:19:09.531Z,42.83
2023-05-08T08:21:44.435Z,42.73
2023-05-08T08:24:14.396Z,42.51
2023-05-08T08:26:46.156Z,42.61
2023-05-08T08:29:16.460Z,42.86
2023-05-08T08:31:46.777Z,42.71
2023-05-08T08:34:16.894Z,42.22
2023-05-08T08:36:47.120Z,42.45
2023-05-08T08:39:17.211Z,42.66
2023-05-08T08:41:48.676Z,42.37
2023-05-08T08:44:18.968Z,42.35
2023-05-08T08:46:54.971Z,41.94
2023-05-08T08:49:33.228Z,42.38
2023-05-08T08:52:09.639Z,42.12
2023-05-08T08:54:42.840Z,41.93
2023-05-08T08:57:17.531Z,41.82
2023-05-08T08:59:48.525Z,41.65
2023-05-08T09:02:21.229Z,42.04
2023-05-08T09:04:53.151Z,41.50
2023-05-08T09:07:24.791Z,41.96
2023-05-08T09:09:56.617Z,42.04
2023-05-08T09:12:28.626Z,41.84
2023-05-08T09:14:59.124Z,41.81
2023-05-08T09:17:30.027Z,41.85
2023-05-08T09:20:01.414Z,41.61
2023-05-08T09:22:33.746Z,41.66
2023-05-08T09:25:03.896Z,41.76
2023-05-08T09:27:36.777Z,41.23
2023-05-08T09:30:08.924Z,41.42
2023-05-08T09:32:41.635Z,41.61
2023-05-08T09:35:14.142Z,41.15
2023-05-08T09:37:45.342Z,41.27
2023-05-08T09:40:20.197Z,41.08
2023-05-08T09:42:53.083Z,40.94
2023-05-08T09:45:36.087Z,41.10
2023-05-08T09:48:07.036Z,41.20
2023-05-08T09:50:36.916Z,41.18
2023-05-08T09:53:07.227Z,41.19
2023-05-08T09:55:51.260Z,41.00
2023-05-08T09:58:25.382Z,40.58
2023-05-08T10:00:55.759Z,40.83
2023-05-08T10:03:48.890Z,40.97
2023-05-08T10:06:19.744Z,40.66
2023-05-08T10:08:50.132Z,41.03
2023-05-08T10:11:22.954Z,40.98
2023-05-08T10:13:55.844Z,40.95
2023-05-08T10:16:27.365Z,40.53
2023-05-08T10:19:03.433Z,40.74
2023-05-08T10:21:38.799Z,40.97
2023-05-08T10:24:17.626Z,40.48
2023-05-08T10:27:07.761Z,40.77
2023-05-08T10:29:51.456Z,40.83
2023-05-08T10:32:24.726Z,40.77
2023-05-08T10:35:01.231Z,40.65
2023-05-08T10:37:33.024Z,40.44
2023-05-08T10:40:04.986Z,40.39
2023-05-08T10:42:37.170Z,40.50
2023-05-08T10:45:11.780Z,40.45
2023-05-08T10:48:05.846Z,40.78
2023-05-08T10:50:52.572Z,40.66
2023-05-08T10:53:37.953Z,40.69
2023-05-08T10:56:08.570Z,40.50
2023-05-08T10:58:41.030Z,40.66
2023-05-08T11:01:20.376Z,40.85
2023-05-08T11:03:56.324Z,40.85
2023-05-08T11:06:49.519Z,40.59
2023-05-08T11:09:24.892Z,40.28
2023-05-08T11:12:21.495Z,40.23
2023-05-08T11:15:04.433Z,40.75
2023-05-08T11:17:36.527Z,40.42
2023-05-08T11:20:08.781Z,40.26
2023-05-08T11:22:39.726Z,40.78
2023-05-08T11:25:13.116Z,40.36
2023-05-08T11:28:14.380Z,40.82
2023-05-08T11:30:47.160Z,40.76
2023-05-08T11:33:20.137Z,40.57
2023-05-08T11:35:57.038Z,40.30
2023-05-08T11:38:34.497Z,40.19
2023-05-08T11:41:10.120Z,40.36
2023-05-08T11:44:21.071Z,40.31
2023-05-08T11:46:56.168Z,40.81
2023-05-08T11:49:30.339Z,40.72
2023-05-08T11:52:05.119Z,40.85
2023-05-08T11:54:35.580Z,40.51
2023-05-08T11:57:06.237Z,40.44
2023-05-08T11:59:39.515Z,40.12
2023-05-08T12:02:10.746Z,40.59
2023-05-08T12:04:53.532Z,40.51
2023-05-08T12:07:24.638Z,40.38
2023-05-08T12:09:55.159Z,40.50
2023-05-08T12:12:25.715Z,40.32
2023-05-08T12:14:57.422Z,40.65
2023-05-08T12:17:27.512Z,40.61
2023-05-08T12:20:11.738Z,40.66
2023-05-08T12:22:42.412Z,40.79
2023-05-08T12:25:14.460Z,40.18
2023-05-08T12:27:46.495Z,40.26
2023-05-08T12:30:19.016Z,40.81
2023-05-08T12:32:50.662Z,40.24
2023-05-08T12:35:28.421Z,40.43
2023-05-08T12:38:04.922Z,40.15
2023-05-08T12:40:37.317Z,40.48
2023-05-08T12:43:07.844Z,40.73
2023-05-08T12:45:41.221Z,40.66
2023-05-08T12:48:13.207Z,40.76
2023-05-08T12:50:47.763Z,40.44
2023-05-08T12:53:22.019Z,40.27
2023-05-08T12:55:58.027Z,40.27
2023-05-08T12:58:30.316Z,40.53
2023-05-08T13:01:15.803Z,40.40
2023-05-08T13:03:50.743Z,40.37
2023-05-08T13:06:28.326Z,40.66
2023-05-08T13:08:58.770Z,40.15
2023-05-08T13:11:33.581Z,40.44
2023-05-08T13:14:03.637Z,40.14
2023-05-08T13:16:44.060Z,40.61
2023-05-08T13:19:15.065Z,40.18
2023-05-08T13:21:48.329Z,40.32
2023-05-08T13:24:19.217Z,40.55
2023-05-08T13:26:49.623Z,40.25
2023-05-08T13:29:19.651Z,40.63
2023-05-08T13:31:49.944Z,40.52
2023-05-08T13:34:20.318Z,40.52
2023-05-08T13:36:52.654Z,39.95
2023-05-08T13:39:22.826Z,40.14
2023-05-08T13:41:53.290Z,40.34
2023-05-08T13:44:23.501Z,39.92
2023-05-08T13:46:54.204Z,40.20
2023-05-08T13:49:24.683Z,40.54
2023-05-08T13:51:57.408Z,40.46
2023-05-08T13:54:28.287Z,39.88
2023-05-08T13:56:58.464Z,40.26
2023-05-08T13:59:31.750Z,40.30
2023-05-08T14:02:03.126Z,40.19
2023-05-08T14:04:33.490Z,40.33
2023-05-08T14:07:05.891Z,40.00
2023-05-08T14:09:36.506Z,40.33
2023-05-08T14:12:06.704Z,40.31
2023-05-08T14:14:37.163Z,40.27
2023-05-08T14:17:08.961Z,40.37
2023-05-08T14:19:39.218Z,40.51
2023-05-08T14:22:11.468Z,40.49
2023-05-08T14:24:42.143Z,40.38
2023-05-08T14:27:12.524Z,40.17
2023-05-08T14:29:43.107Z,40.44
2023-05-08T14:32:12.840Z,40.43
2023-05-08T14:34:42.760Z,40.46
2023-05-08T14:37:15.127Z,40.76
2023-05-08T14:39:45.846Z,40.44
2023-05-08T14:42:22.957Z,40.68
2023-05-08T14:44:56.174Z,40.55
2023-05-08T14:47:26.179Z,40.44
2023-05-08T14:49:57.101Z,40.49
2023-05-08T14:52:29.264Z,40.39
2023-05-08T14:54:59.663Z,40.84
2023-05-08T14:57:29.291Z,40.90
2023-05-08T14:59:59.601Z,40.63
2023-05-08T15:02:29.953Z,40.78
2023-05-08T15:05:00.560Z,40.90
2023-05-08T15:07:33.114Z,40.66
2023-05-08T15:10:03.387Z,40.97
2023-05-08T15:12:33.242Z,40.93
2023-05-08T15:15:04.680Z,41.03
2023-05-08T15:17:36.842Z,41.07
2023-05-08T15:20:07.939Z,40.58
2023-05-08T15:22:39.901Z,41.08
2023-05-08T15:25:12.498Z,40.99
2023-05-08T15:27:43.679Z,40.89
2023-05-08T15:30:15.561Z,40.92
2023-05-08T15:32:46.298Z,40.69
2023-05-08T15:35:16.629Z,40.88
2023-05-08T15:37:49.611Z,41.06
2023-05-08T15:40:19.773Z,41.37
2023-05-08T15:42:50.235Z,40.97
2023-05-08T15:45:20.556Z,41.00
2023-05-08T15:47:50.213Z,41.07
2023-05-08T15:50:20.538Z,40.88
2023-05-08T15:52:52.864Z,41.11
2023-05-08T15:55:23.553Z,41.04
2023-05-08T15:57:53.947Z,40.96
2023-05-08T16:00:27.359Z,40.99
2023-05-08T16:03:00.468Z,41.01
2023-05-08T16:05:30.702Z,40.74
2023-05-08T16:08:03.011Z,41.43
2023-05-08T16:10:33.414Z,41.00
2023-05-08T16:13:03.697Z,41.17
2023-05-08T16:15:34.220Z,40.99
2023-05-08T16:18:04.505Z,40.96
2023-05-08T16:20:36.246Z,41.20
2023-05-08T16:23:08.577Z,41.38
2023-05-08T16:25:38.934Z,41.22
2023-05-08T16:28:09.230Z,41.26
2023-05-08T16:30:39.507Z,41.31
2023-05-08T16:33:09.912Z,41.38
2023-05-08T16:35:41.336Z,41.48
2023-05-08T16:38:14.232Z,41.24
2023-05-08T16:40:45.383Z,41.46
2023-05-08T16:43:15.329Z,41.44
2023-05-08T16:45:45.417Z,41.16
2023-05-08T16:48:15.828Z,41.28
2023-05-08T16:50:46.211Z,41.29
2023-05-08T16:53:17.859Z,41.33
2023-05-08T16:55:48.158Z,41.25
2023-05-08T16:58:18.534Z,41.49
2023-05-08T17:00:48.275Z,41.11
2023-05-08T17:03:18.518Z,41.24
2023-05-08T17:05:49.135Z,41.67
2023-05-08T17:08:21.022Z,41.28
2023-05-08T17:10:51.928Z,41.28
2023-05-08T17:13:23.991Z,41.54
2023-05-08T17:15:54.415Z,41.34
2023-05-08T17:18:24.882Z,41.53
2023-05-08T17:20:54.561Z,41.50
2023-05-08T17:23:26.458Z,41.69
2023-05-08T17:26:00.717Z,41.72
2023-05-08T17:28:30.697Z,41.64
2023-05-08T17:31:00.287Z,41.58
2023-05-08T17:33:30.013Z,41.47
2023-05-08T17:36:00.572Z,41.56
2023-05-08T17:38:32.404Z,41.24
2023-05-08T17:41:02.599Z,41.41
2023-05-08T17:43:32.746Z,41.71
2023-05-08T17:46:02.593Z,41.76
2023-05-08T17:48:32.977Z,41.33
2023-05-08T17:51:03.822Z,41.68
2023-05-08T17:53:35.694Z,41.53
2023-05-08T17:56:05.972Z,41.72
2023-05-08T17:58:36.327Z,41.79
2023-05-08T18:01:06.630Z,41.64
2023-05-08T18:03:36.529Z,41.78
2023-05-08T18:06:07.176Z,41.60
2023-05-08T18:08:41.460Z,41.81
2023-05-08T18:11:19.764Z,41.78
2023-05-08T18:13:49.760Z,41.66
2023-05-08T18:16:22.187Z,41.75
2023-05-08T18:18:52.937Z,41.62
2023-05-08T18:21:22.600Z,41.92
2023-05-08T18:23:53.846Z,41.63
2023-05-08T18:26:24.293Z,41.97
2023-05-08T18:28:54.719Z,42.24
2023-05-08T18:31:24.500Z,41.95
2023-05-08T18:33:54.528Z,41.98
2023-05-08T18:36:24.278Z,41.87
2023-05-08T18:38:56.628Z,41.72
2023-05-08T18:41:26.354Z,41.84
2023-05-08T18:43:56.788Z,41.88
2023-05-08T18:46:26.898Z,41.91
2023-05-08T18:48:56.588Z,41.83
2023-05-08T18:51:26.539Z,42.02
2023-05-08T18:53:58.813Z,41.99
2023-05-08T18:56:29.252Z,42.11
2023-05-08T18:59:00.415Z,42.11
2023-05-08T19:01:30.225Z,41.75
2023-05-08T19:04:01.275Z,41.96
2023-05-08T19:06:31.856Z,41.98
2023-05-08T19:09:03.589Z,41.76
2023-05-08T19:11:33.975Z,42.12
2023-05-08T19:14:04.483Z,41.89
2023-05-08T19:16:34.770Z,42.23
2023-05-08T19:19:05.025Z,42.01
2023-05-08T19:21:35.628Z,42.16
2023-05-08T19:24:08.850Z,42.26
2023-05-08T19:26:39.196Z,41.99
2023-05-08T19:29:09.671Z,41.98
2023-05-08T19:31:40.178Z,42.12
2023-05-08T19:34:10.270Z,42.08
2023-05-08T19:36:40.688Z,41.99
2023-05-08T19:39:11.971Z,42.19
2023-05-08T19:41:43.748Z,42.20
2023-05-08T19:44:14.377Z,42.10
2023-05-08T19:46:44.959Z,42.29
2023-05-08T19:49:16.568Z,42.39
2023-05-08T19:51:48.672Z,42.08
2023-05-08T19:54:21.090Z,42.12
2023-05-08T19:56:51.109Z,42.26
2023-05-08T19:59:21.501Z,42.13
2023-05-08T20:01:51.274Z,42.12
2023-05-08T20:04:21.937Z,42.26
2023-05-08T20:06:51.782Z,42.18
2023-05-08T20:09:23.660Z,42.24
2023-05-08T20:11:55.688Z,42.15
2023-05-08T20:14:26.051Z,42.43
2023-05-08T20:16:56.326Z,42.32
2023-05-08T20:19:26.678Z,42.34
2023-05-08T20:21:56.628Z,42.35
2023-05-08T20:24:28.475Z,42.05
2023-05-08T20:26:58.444Z,42.38
2023-05-08T20:29:29.066Z,42.30
2023-05-08T20:31:59.386Z,42.27
2023-05-08T20:34:30.348Z,42.42
2023-05-08T20:37:01.311Z,42.02
2023-05-08T20:39:33.523Z,42.62
2023-05-08T20:42:03.732Z,42.33
2023-05-08T20:44:34.155Z,42.24
2023-05-08T20:47:03.876Z,42.30
2023-05-08T20:49:34.372Z,42.47
2023-05-08T20:52:05.857Z,42.44
2023-05-08T20:54:38.014Z,42.39
2023-05-08T20:57:08.722Z,42.44
2023-05-08T20:59:39.244Z,42.21
2023-05-08T21:02:09.949Z,42.66
2023-05-08T21:04:40.622Z,42.45
2023-05-08T21:07:10.734Z,42.42
2023-05-08T21:09:43.167Z,42.47
2023-05-08T21:12:13.481Z,42.47
2023-05-08T21:14:44.615Z,42.46
2023-05-08T21:17:14.564Z,42.53
2023-05-08T21:19:44.800Z,42.47
2023-05-08T21:22:15.173Z,42.62
2023-05-08T21:24:48.276Z,42.65
2023-05-08T21:27:18.502Z,42.47
2023-05-08T21:29:48.820Z,42.65
2023-05-08T21:32:19.210Z,42.61
2023-05-08T21:34:49.037Z,42.56
2023-05-08T21:37:19.104Z,42.65
2023-05-08T21:39:50.873Z,42.69
2023-05-08T21:42:21.023Z,42.48
2023-05-08T21:44:51.034Z,42.63
2023-05-08T21:47:22.957Z,42.51
2023-05-08T21:49:52.726Z,42.43
2023-05-08T21:52:23.848Z,42.46
2023-05-08T21:54:55.947Z,42.64
2023-05-08T21:57:26.174Z,42.50
2023-05-08T21:59:56.604Z,42.60
2023-05-08T22:02:26.583Z,42.43
2023-05-08T22:04:57.002Z,42.81
2023-05-08T22:07:27.457Z,42.70
2023-05-08T22:10:00.325Z,42.92
2023-05-08T22:12:30.621Z,42.67
2023-05-08T22:15:00.886Z,42.73
2023-05-08T22:17:31.123Z,42.84
2023-05-08T22:20:01.016Z,42.76
2023-05-08T22:22:31.481Z,42.74
2023-05-08T22:25:03.490Z,42.69
2023-05-08T22:27:33.862Z,42.91
2023-05-08T22:30:03.757Z,42.73
2023-05-08T22:32:33.934Z,43.30
2023-05-08T22:35:03.933Z,42.90
2023-05-08T22:37:34.057Z,42.85
2023-05-08T22:40:05.910Z,42.72
2023-05-08T22:42:36.680Z,42.87
2023-05-08T22:45:07.804Z,42.91
2023-05-08T22:47:38.440Z,42.71
2023-05-08T22:50:10.086Z,42.72
2023-05-08T22:52:41.373Z,42.95
2023-05-08T22:55:15.941Z,42.91
2023-05-08T22:57:46.270Z,42.91
2023-05-08T23:00:18.245Z,42.97
2023-05-08T23:02:48.614Z,42.89
2023-05-08T23:05:18.801Z,42.92
2023-05-08T23:07:48.927Z,42.92
2023-05-08T23:10:20.830Z,43.07
2023-05-08T23:12:50.947Z,42.95
2023-05-08T23:15:21.709Z,42.94
2023-05-08T23:17:52.424Z,43.05
2023-05-08T23:20:22.929Z,42.99
2023-05-08T23:22:52.997Z,43.12
2023-05-08T23:25:24.921Z,42.90
2023-05-08T23:27:55.247Z,43.01
2023-05-08T23:30:25.626Z,43.01
2023-05-08T23:32:55.569Z,43.14
2023-05-08T23:35:25.915Z,43.12
2023-05-08T23:37:56.214Z,43.26
2023-05-08T23:40:28.590Z,43.27
2023-05-08T23:42:58.474Z,43.31
2023-05-08T23:45:28.777Z,43.22
2023-05-08T23:47:58.882Z,43.10
2023-05-08T23:50:29.235Z,43.17
2023-05-08T23:52:59.416Z,43.15
2023-05-08T23:55:31.917Z,43.00
2023-05-08T23:58:02.306Z,43.27
